createdAt,value
2023-06-29T00:01:33.567Z,70.35
2023-06-29T00:04:40.869Z,70.41
2023-06-29T00:07:46.217Z,70.38
2023-06-29T00:10:52.485Z,70.40
2023-06-29T00:13:59.155Z,70.40
2023-06-29T00:17:07.471Z,70.37
2023-06-29T00:20:14.628Z,70.39
2023-06-29T00:23:21.930Z,70.43
2023-06-29T00:26:27.285Z,70.42
2023-06-29T00:29:33.455Z,70.47
2023-06-29T00:32:39.632Z,70.53
2023-06-29T00:35:47.004Z,70.53
2023-06-29T00:38:55.843Z,70.51
2023-06-29T00:42:09.570Z,70.53
2023-06-29T00:45:16.316Z,70.55
2023-06-29T00:48:22.244Z,70.65
2023-06-29T00:51:29.498Z,70.73
2023-06-29T00:54:35.880Z,70.82
2023-06-29T00:57:42.663Z,70.88
2023-06-29T01:00:52.292Z,70.93
2023-06-29T01:04:01.001Z,70.97
2023-06-29T01:07:19.225Z,70.98
2023-06-29T01:10:25.674Z,71.01
2023-06-29T01:13:34.997Z,71.04
2023-06-29T01:16:41.616Z,71.11
2023-06-29T01:19:49.130Z,71.17
2023-06-29T01:23:07.289Z,71.23
2023-06-29T01:26:13.362Z,71.29
2023-06-29T01:29:21.650Z,71.32
2023-06-29T01:32:26.756Z,71.36
2023-06-29T01:35:32.857Z,71.41
2023-06-29T01:38:47.020Z,71.42
2023-06-29T01:41:56.651Z,71.46
2023-06-29T01:45:03.606Z,71.54
2023-06-29T01:48:11.568Z,71.57
2023-06-29T01:51:20.468Z,71.57
2023-06-29T01:54:26.206Z,71.65
2023-06-29T01:57:33.503Z,71.74
2023-06-29T02:00:39.562Z,71.75
2023-06-29T02:03:46.660Z,71.83
2023-06-29T02:06:52.216Z,71.82
2023-06-29T02:09:59.607Z,71.86
2023-06-29T02:13:05.074Z,71.94
2023-06-29T02:16:12.186Z,72.02
2023-06-29T02:19:19.017Z,72.07
2023-06-29T02:22:26.211Z,72.10
2023-06-29T02:25:32.680Z,72.15
2023-06-29T02:28:40.380Z,72.26
2023-06-29T02:31:47.296Z,72.33
2023-06-29T02:34:55.575Z,72.42
2023-06-29T02:38:02.023Z,72.49
2023-06-29T02:41:07.062Z,72.56
2023-06-29T02:44:13.931Z,72.56
2023-06-29T02:47:23.457Z,72.60
2023-06-29T02:50:29.852Z,72.68
2023-06-29T02:53:35.681Z,72.76
2023-06-29T02:56:41.552Z,72.85
2023-06-29T02:59:48.162Z,72.88
2023-06-29T03:02:54.833Z,72.93
2023-06-29T03:06:02.841Z,72.96
2023-06-29T03:09:11.163Z,72.99
2023-06-29T03:12:18.442Z,73.02
2023-06-29T03:15:25.126Z,73.10
2023-06-29T03:18:31.848Z,73.16
2023-06-29T03:21:37.451Z,73.17
2023-06-29T03:24:44.539Z,73.24
2023-06-29T03:27:51.292Z,73.25
2023-06-29T03:30:59.588Z,73.30
2023-06-29T03:34:05.791Z,73.36
2023-06-29T03:37:11.114Z,73.39
2023-06-29T03:40:18.003Z,73.42
2023-06-29T03:43:23.498Z,73.45
2023-06-29T03:46:29.024Z,73.50
2023-06-29T03:49:35.275Z,73.55
2023-06-29T03:52:42.657Z,73.59
2023-06-29T03:55:50.095Z,73.61
2023-06-29T03:58:56.228Z,73.62
2023-06-29T04:02:03.360Z,73.68
2023-06-29T04:05:10.823Z,73.73
2023-06-29T04:08:18.303Z,73.85
2023-06-29T04:11:25.144Z,73.91
2023-06-29T04:14:30.479Z,73.90
2023-06-29T04:17:35.369Z,73.88
2023-06-29T04:20:41.496Z,73.93
2023-06-29T04:23:48.644Z,73.94
2023-06-29T04:26:55.783Z,73.94
2023-06-29T04:30:01.870Z,73.95
2023-06-29T04:33:09.123Z,73.94
2023-06-29T04:36:14.545Z,73.96
2023-06-29T04:39:20.335Z,74.04
2023-06-29T04:42:26.738Z,74.04
2023-06-29T04:45:33.221Z,74.10
2023-06-29T04:48:41.055Z,74.09
2023-06-29T04:51:46.242Z,74.10
2023-06-29T04:54:51.153Z,74.08
2023-06-29T04:57:57.288Z,74.06
2023-06-29T05:01:04.502Z,74.06
2023-06-29T05:04:10.679Z,73.99
2023-06-29T05:07:16.701Z,73.96
2023-06-29T05:10:22.452Z,73.88
2023-06-29T05:13:28.989Z,73.86
2023-06-29T05:16:34.920Z,73.86
2023-06-29T05:19:42.627Z,73.81
2023-06-29T05:22:48.783Z,73.73
2023-06-29T05:25:55.026Z,73.66
2023-06-29T05:29:05.981Z,73.63
2023-06-29T05:32:11.992Z,73.57
2023-06-29T05:35:20.905Z,73.53
2023-06-29T05:38:29.891Z,73.44
2023-06-29T05:41:38.149Z,73.40
2023-06-29T05:44:45.641Z,73.41
2023-06-29T05:47:51.855Z,73.33
2023-06-29T05:50:59.700Z,73.28
2023-06-29T05:54:06.195Z,73.20
2023-06-29T05:57:14.211Z,73.18
2023-06-29T06:00:21.994Z,73.16
2023-06-29T06:03:30.101Z,73.04
2023-06-29T06:06:39.126Z,72.91
2023-06-29T06:09:44.177Z,72.89
2023-06-29T06:12:50.865Z,72.74
2023-06-29T06:15:57.635Z,72.62
2023-06-29T06:19:03.383Z,72.56
2023-06-29T06:22:08.733Z,72.56
2023-06-29T06:25:14.203Z,72.42
2023-06-29T06:28:18.691Z,72.25
2023-06-29T06:31:33.507Z,72.10
2023-06-29T06:34:35.843Z,71.89
2023-06-29T06:37:42.130Z,71.64
2023-06-29T06:40:47.675Z,71.54
2023-06-29T06:43:55.713Z,71.48
2023-06-29T06:47:00.713Z,71.41
2023-06-29T06:50:07.332Z,71.17
2023-06-29T06:53:12.801Z,70.95
2023-06-29T06:56:21.301Z,70.83
2023-06-29T06:59:27.649Z,70.74
2023-06-29T07:02:33.490Z,70.59
2023-06-29T07:05:39.470Z,70.37
2023-06-29T07:08:46.643Z,70.16
2023-06-29T07:11:54.585Z,69.98
2023-06-29T07:15:00.356Z,69.91
2023-06-29T07:18:09.356Z,69.80
2023-06-29T07:21:17.752Z,69.78
2023-06-29T07:24:22.095Z,69.71
2023-06-29T07:27:27.500Z,69.50
2023-06-29T07:30:32.982Z,69.29
2023-06-29T07:33:38.851Z,68.97
2023-06-29T07:36:47.428Z,68.67
2023-06-29T07:39:53.385Z,68.50
2023-06-29T07:42:59.837Z,68.36
2023-06-29T07:46:07.173Z,68.25
2023-06-29T07:49:13.204Z,68.07
2023-06-29T07:52:19.505Z,67.87
2023-06-29T07:55:24.806Z,67.66
2023-06-29T08:01:40.905Z,67.23
2023-06-29T08:07:58.834Z,66.69
2023-06-29T08:11:07.095Z,66.44
2023-06-29T08:14:15.123Z,66.20
2023-06-29T08:17:20.728Z,65.79
2023-06-29T08:20:27.857Z,65.34
2023-06-29T08:23:36.126Z,65.21
2023-06-29T08:26:42.684Z,64.99
2023-06-29T08:29:48.619Z,64.77
2023-06-29T08:32:56.606Z,64.55
2023-06-29T08:36:03.698Z,64.24
2023-06-29T08:39:10.741Z,63.96
2023-06-29T08:42:17.300Z,63.86
2023-06-29T08:45:24.861Z,63.77
2023-06-29T08:48:32.208Z,63.70
2023-06-29T08:51:40.383Z,63.47
2023-06-29T08:54:48.357Z,63.38
2023-06-29T08:57:54.390Z,63.38
2023-06-29T09:01:04.289Z,63.40
2023-06-29T09:04:10.460Z,63.40
2023-06-29T09:07:16.409Z,63.28
2023-06-29T09:10:23.417Z,62.96
2023-06-29T09:13:30.988Z,62.59
2023-06-29T09:16:39.081Z,62.40
2023-06-29T09:19:43.867Z,62.28
2023-06-29T09:22:49.929Z,62.16
2023-06-29T09:25:56.216Z,61.99
2023-06-29T09:29:03.111Z,61.92
2023-06-29T09:32:17.359Z,61.70
2023-06-29T09:35:24.074Z,61.39
2023-06-29T09:38:32.609Z,61.26
2023-06-29T09:41:38.434Z,61.23
2023-06-29T09:44:44.735Z,61.09
2023-06-29T09:51:07.120Z,60.73
2023-06-29T09:54:17.652Z,60.57
2023-06-29T09:57:23.752Z,60.44
2023-06-29T10:00:30.810Z,60.47
2023-06-29T10:03:39.632Z,60.46
2023-06-29T10:06:50.004Z,60.50
2023-06-29T10:09:59.657Z,60.62
2023-06-29T10:13:09.301Z,60.58
2023-06-29T10:16:15.577Z,60.36
2023-06-29T10:19:37.803Z,60.16
2023-06-29T10:22:44.386Z,59.96
2023-06-29T10:25:52.259Z,59.85
2023-06-29T10:28:58.653Z,59.80
2023-06-29T10:32:05.219Z,59.79
2023-06-29T10:35:20.526Z,59.77
2023-06-29T10:38:28.905Z,59.84
2023-06-29T10:41:44.278Z,59.90
2023-06-29T10:44:53.035Z,59.89
2023-06-29T10:48:18.168Z,59.80
2023-06-29T10:51:24.706Z,59.56
2023-06-29T10:54:32.149Z,59.46
2023-06-29T10:57:44.567Z,59.22
2023-06-29T11:00:50.128Z,59.13
2023-06-29T11:03:56.359Z,58.85
2023-06-29T11:07:01.414Z,58.59
2023-06-29T11:10:17.536Z,58.40
2023-06-29T11:13:25.811Z,58.01
2023-06-29T11:16:32.477Z,57.99
2023-06-29T11:19:46.806Z,57.89
2023-06-29T11:22:53.115Z,57.92
2023-06-29T11:26:00.667Z,57.81
2023-06-29T11:29:08.993Z,57.66
2023-06-29T11:32:19.085Z,57.56
2023-06-29T11:35:30.658Z,57.44
2023-06-29T11:38:37.419Z,57.50
2023-06-29T11:41:46.121Z,57.46
2023-06-29T11:44:52.516Z,57.35
2023-06-29T11:47:59.962Z,57.03
2023-06-29T11:51:07.318Z,56.87
2023-06-29T11:54:15.070Z,56.66
2023-06-29T11:57:22.779Z,56.58
2023-06-29T12:00:33.339Z,56.65
2023-06-29T12:03:39.539Z,56.69
2023-06-29T12:06:46.458Z,56.66
2023-06-29T12:09:53.928Z,56.51
2023-06-29T12:13:07.461Z,56.42
2023-06-29T12:19:29.903Z,56.24
2023-06-29T12:22:38.329Z,56.11
2023-06-29T12:25:46.968Z,56.12
2023-06-29T12:28:54.367Z,55.86
2023-06-29T12:32:02.696Z,55.79
2023-06-29T12:35:09.932Z,55.72
2023-06-29T12:38:14.663Z,55.44
2023-06-29T12:41:21.369Z,55.23
2023-06-29T12:44:28.303Z,55.07
2023-06-29T12:47:34.831Z,54.86
2023-06-29T12:50:40.820Z,54.76
2023-06-29T12:53:46.883Z,54.71
2023-06-29T12:56:55.533Z,54.56
2023-06-29T13:00:02.578Z,54.41
2023-06-29T13:03:10.953Z,54.32
2023-06-29T13:06:17.094Z,54.28
2023-06-29T13:09:23.232Z,54.23
2023-06-29T13:12:30.124Z,54.02
2023-06-29T13:15:36.017Z,53.98
2023-06-29T13:18:43.822Z,54.02
2023-06-29T13:21:51.079Z,54.02
2023-06-29T13:24:56.525Z,54.01
2023-06-29T13:28:03.466Z,54.20
2023-06-29T13:31:09.370Z,54.31
2023-06-29T13:34:16.101Z,54.30
2023-06-29T13:37:22.717Z,54.21
2023-06-29T13:40:29.376Z,54.27
2023-06-29T13:43:35.891Z,54.32
2023-06-29T13:46:45.155Z,54.19
2023-06-29T13:49:52.108Z,54.05
2023-06-29T13:52:59.374Z,53.96
2023-06-29T13:56:05.497Z,54.09
2023-06-29T13:59:16.691Z,54.04
2023-06-29T14:02:21.693Z,53.80
2023-06-29T14:05:27.861Z,53.73
2023-06-29T14:08:33.262Z,53.56
2023-06-29T14:11:40.372Z,53.44
2023-06-29T14:14:51.014Z,53.37
2023-06-29T14:17:57.311Z,53.45
2023-06-29T14:21:05.017Z,53.54
2023-06-29T14:24:11.376Z,53.54
2023-06-29T14:27:17.529Z,53.62
2023-06-29T14:30:26.202Z,53.54
2023-06-29T14:33:32.650Z,53.43
2023-06-29T14:36:37.915Z,53.30
2023-06-29T14:39:44.303Z,53.19
2023-06-29T14:42:51.701Z,53.09
2023-06-29T14:45:56.013Z,52.96
2023-06-29T14:49:02.828Z,53.03
2023-06-29T14:52:09.189Z,53.05
2023-06-29T14:55:15.561Z,52.98
2023-06-29T14:58:21.697Z,52.96
2023-06-29T15:01:28.888Z,52.93
2023-06-29T15:04:34.727Z,53.08
2023-06-29T15:07:40.797Z,53.11
2023-06-29T15:10:46.382Z,53.14
2023-06-29T15:13:54.822Z,53.26
2023-06-29T15:17:01.636Z,53.39
2023-06-29T15:20:08.433Z,53.63
2023-06-29T15:23:14.450Z,53.80
2023-06-29T15:26:18.735Z,53.92
2023-06-29T15:29:18.611Z,54.07
2023-06-29T15:32:06.302Z,54.21
2023-06-29T15:34:59.158Z,54.37
2023-06-29T15:37:47.421Z,54.50
2023-06-29T15:40:39.801Z,54.71
2023-06-29T15:43:28.582Z,54.83
2023-06-29T15:46:22.193Z,54.99
2023-06-29T15:49:14.804Z,55.15
2023-06-29T15:52:21.396Z,55.25
2023-06-29T15:55:26.971Z,55.34
2023-06-29T15:58:35.303Z,55.38
2023-06-29T16:01:41.843Z,55.54
2023-06-29T16:04:50.150Z,55.77
2023-06-29T16:08:01.232Z,55.91
2023-06-29T16:11:06.554Z,55.82
2023-06-29T16:14:12.795Z,55.82
2023-06-29T16:17:18.790Z,55.89
2023-06-29T16:20:26.026Z,55.98
2023-06-29T16:23:33.133Z,55.99
2023-06-29T16:26:39.046Z,56.00
2023-06-29T16:29:44.685Z,55.99
2023-06-29T16:32:51.942Z,56.09
2023-06-29T16:36:00.188Z,56.15
2023-06-29T16:39:05.215Z,56.20
2023-06-29T16:42:12.037Z,56.27
2023-06-29T16:45:18.282Z,56.28
2023-06-29T16:48:23.821Z,56.31
2023-06-29T16:51:28.767Z,56.38
2023-06-29T16:54:36.062Z,56.40
2023-06-29T16:57:41.858Z,56.42
2023-06-29T17:00:48.432Z,56.54
2023-06-29T17:03:56.580Z,56.67
2023-06-29T17:07:02.622Z,56.81
2023-06-29T17:10:09.048Z,56.85
2023-06-29T17:13:14.970Z,56.90
2023-06-29T17:16:21.740Z,56.97
2023-06-29T17:19:27.449Z,57.11
2023-06-29T17:22:33.442Z,57.17
2023-06-29T17:25:39.578Z,57.25
2023-06-29T17:28:46.291Z,57.41
2023-06-29T17:31:52.545Z,57.57
2023-06-29T17:34:57.664Z,57.75
2023-06-29T17:37:57.335Z,57.86
2023-06-29T17:40:50.945Z,58.03
2023-06-29T17:43:59.072Z,58.16
2023-06-29T17:47:05.217Z,58.27
2023-06-29T17:50:11.407Z,58.28
2023-06-29T17:53:18.942Z,58.29
2023-06-29T17:56:26.520Z,58.37
2023-06-29T17:59:33.362Z,58.47
2023-06-29T18:02:40.420Z,58.60
2023-06-29T18:05:47.175Z,58.76
2023-06-29T18:08:53.267Z,58.90
2023-06-29T18:12:04.177Z,59.00
2023-06-29T18:15:09.585Z,59.06
2023-06-29T18:18:17.316Z,59.09
2023-06-29T18:21:25.249Z,59.19
2023-06-29T18:24:31.903Z,59.31
2023-06-29T18:27:38.040Z,59.50
2023-06-29T18:30:43.962Z,59.63
2023-06-29T18:33:50.999Z,59.75
2023-06-29T18:36:56.880Z,59.89
2023-06-29T18:40:03.418Z,60.02
2023-06-29T18:43:08.542Z,60.17
2023-06-29T18:46:15.791Z,60.26
2023-06-29T18:49:21.966Z,60.41
2023-06-29T18:52:31.074Z,60.58
2023-06-29T18:55:39.973Z,60.69
2023-06-29T18:58:47.031Z,60.79
2023-06-29T19:01:54.155Z,60.92
2023-06-29T19:05:00.816Z,61.10
2023-06-29T19:08:07.350Z,61.20
2023-06-29T19:11:15.088Z,61.33
2023-06-29T19:14:23.206Z,61.46
2023-06-29T19:17:28.030Z,61.61
2023-06-29T19:20:34.865Z,61.77
2023-06-29T19:23:40.844Z,61.91
2023-06-29T19:26:49.091Z,62.04
2023-06-29T19:29:55.747Z,62.17
2023-06-29T19:33:03.103Z,62.31
2023-06-29T19:36:10.954Z,62.46
2023-06-29T19:39:17.507Z,62.59
2023-06-29T19:42:24.711Z,62.74
2023-06-29T19:45:31.804Z,62.86
2023-06-29T19:48:39.805Z,62.99
2023-06-29T19:51:46.868Z,63.12
2023-06-29T19:54:54.309Z,63.25
2023-06-29T19:58:00.135Z,63.38
2023-06-29T20:01:06.282Z,63.51
2023-06-29T20:04:12.445Z,63.62
2023-06-29T20:07:19.303Z,63.75
2023-06-29T20:10:25.708Z,63.87
2023-06-29T20:13:30.864Z,64.02
2023-06-29T20:16:36.211Z,64.15
2023-06-29T20:19:42.625Z,64.28
2023-06-29T20:22:49.557Z,64.37
2023-06-29T20:25:57.460Z,64.46
2023-06-29T20:29:03.509Z,64.50
2023-06-29T20:32:10.958Z,64.56
2023-06-29T20:35:17.889Z,64.68
2023-06-29T20:38:23.727Z,64.81
2023-06-29T20:41:30.515Z,64.92
2023-06-29T20:44:38.222Z,65.02
2023-06-29T20:47:44.579Z,65.17
2023-06-29T20:50:53.493Z,65.30
2023-06-29T20:53:59.520Z,65.39
2023-06-29T20:57:06.027Z,65.46
2023-06-29T21:00:11.863Z,65.55
2023-06-29T21:03:19.939Z,65.65
2023-06-29T21:06:26.144Z,65.78
2023-06-29T21:09:33.329Z,65.87
2023-06-29T21:12:41.361Z,66.03
2023-06-29T21:15:47.308Z,66.21
2023-06-29T21:18:55.743Z,66.34
2023-06-29T21:22:01.661Z,66.46
2023-06-29T21:25:08.851Z,66.56
2023-06-29T21:28:15.248Z,66.69
2023-06-29T21:31:21.039Z,66.83
2023-06-29T21:34:28.149Z,66.92
2023-06-29T21:37:33.942Z,67.06
2023-06-29T21:40:40.094Z,67.17
2023-06-29T21:43:47.175Z,67.29
2023-06-29T21:46:54.626Z,67.42
2023-06-29T21:50:01.168Z,67.55
2023-06-29T21:53:07.121Z,67.70
2023-06-29T21:56:25.080Z,67.83
2023-06-29T21:59:20.782Z,67.98
2023-06-29T22:02:27.405Z,68.10
2023-06-29T22:05:33.500Z,68.21
2023-06-29T22:08:39.789Z,68.33
2023-06-29T22:11:47.370Z,68.47
2023-06-29T22:14:55.095Z,68.59
2023-06-29T22:18:04.879Z,68.72
2023-06-29T22:21:12.461Z,68.82
2023-06-29T22:24:19.171Z,68.89
2023-06-29T22:27:26.185Z,68.99
2023-06-29T22:30:33.195Z,69.08
2023-06-29T22:33:39.196Z,69.19
2023-06-29T22:36:45.378Z,69.30
2023-06-29T22:39:51.546Z,69.38
2023-06-29T22:42:56.701Z,69.49
2023-06-29T22:46:03.085Z,69.60
2023-06-29T22:49:09.541Z,69.69
2023-06-29T22:52:16.102Z,69.78
2023-06-29T22:55:23.810Z,69.87
2023-06-29T22:58:36.749Z,69.96
2023-06-29T23:01:43.611Z,70.05
2023-06-29T23:04:51.468Z,70.16
2023-06-29T23:07:59.829Z,70.26
2023-06-29T23:11:06.180Z,70.29
2023-06-29T23:14:19.287Z,70.37
2023-06-29T23:17:26.427Z,70.50
2023-06-29T23:20:34.313Z,70.62
2023-06-29T23:23:40.455Z,70.71
2023-06-29T23:26:47.291Z,70.74
2023-06-29T23:29:53.610Z,70.84
2023-06-29T23:33:00.466Z,70.90
2023-06-29T23:36:05.531Z,70.91
2023-06-29T23:39:13.939Z,70.97
2023-06-29T23:42:22.285Z,71.04
2023-06-29T23:45:29.561Z,71.10
2023-06-29T23:48:38.640Z,71.14
2023-06-29T23:51:38.801Z,71.25
2023-06-29T23:54:26.265Z,71.35
2023-06-29T23:57:20.451Z,71.40
